Time,TemperatureF,DewpointF,PressureIn,WindDirection,WindDirectionDegrees,WindSpeedMPH,WindSpeedGustMPH,Humidity,HourlyPrecipIn,Conditions,Clouds,dailyrainin,SoftwareType,DateUTC
2013-03-05 00:13:00,28.4,21.8,29.86,NNW,344,0.6,1.3,76,0.00,,,0.00,WUHU216HW,2013-03-05 05:13:00,
2013-03-05 00:28:00,28.3,22.2,29.86,NW,324,0.5,1.3,78,0.00,,,0.00,WUHU216HW,2013-03-05 05:28:00,
2013-03-05 00:43:00,28.1,22.4,29.86,NNW,334,0.8,3.4,79,0.00,,,0.00,WUHU216HW,2013-03-05 05:43:00,
2013-03-05 00:58:00,28.4,23.3,29.86,NW,304,1.9,4.7,81,0.00,,,0.00,WUHU216HW,2013-03-05 05:58:00,
2013-03-05 01:13:00,29.2,23.8,29.87,NW,315,2.8,6.7,80,0.00,,,0.00,WUHU216HW,2013-03-05 06:13:00,
2013-03-05 01:28:00,29.9,24.1,29.87,NW,318,1.8,4.7,79,0.00,,,0.00,WUHU216HW,2013-03-05 06:28:00,
2013-03-05 01:43:00,30.1,24.3,29.87,NW,321,1.5,5.1,79,0.00,,,0.00,WUHU216HW,2013-03-05 06:43:00,
2013-03-05 01:58:00,29.5,23.8,29.88,East,82,0.6,1.1,79,0.00,,,0.00,WUHU216HW,2013-03-05 06:58:00,
2013-03-05 02:13:00,29.3,23.7,29.88,NNW,327,0.8,1.6,79,0.00,,,0.00,WUHU216HW,2013-03-05 07:13:00,
2013-03-05 02:28:00,29.2,23.5,29.88,NW,323,0.7,1.6,79,0.00,,,0.00,WUHU216HW,2013-03-05 07:28:00,
2013-03-05 02:43:00,28.8,23.4,29.89,WNW,303,0.5,0.7,80,0.00,,,0.00,WUHU216HW,2013-03-05 07:43:00,
2013-03-05 02:58:00,28.8,23.7,29.90,NW,322,0.9,2.7,81,0.00,,,0.00,WUHU216HW,2013-03-05 07:58:00,
2013-03-05 03:13:00,29.2,24.0,29.90,WNW,283,1.6,3.8,81,0.00,,,0.00,WUHU216HW,2013-03-05 08:13:00,
2013-03-05 03:28:00,29.7,24.3,29.91,NW,304,2.3,8.5,80,0.00,,,0.00,WUHU216HW,2013-03-05 08:28:00,
2013-03-05 03:43:00,29.9,24.1,29.91,ENE,61,0.9,2.7,79,0.00,,,0.00,WUHU216HW,2013-03-05 08:43:00,
2013-03-05 03:58:00,29.7,23.9,29.92,SW,221,0.6,1.3,79,0.00,,,0.00,WUHU216HW,2013-03-05 08:58:00,
2013-03-05 04:13:00,30.1,24.3,29.93,West,276,2.2,4.9,79,0.00,,,0.00,WUHU216HW,2013-03-05 09:13:00,
2013-03-05 04:28:00,30.1,24.0,29.94,WNW,284,2.9,5.4,78,0.00,,,0.00,WUHU216HW,2013-03-05 09:28:00,
2013-03-05 04:43:00,30.4,24.7,29.95,WNW,295,2.1,6.3,79,0.00,,,0.00,WUHU216HW,2013-03-05 09:43:00,
2013-03-05 04:58:00,30.2,24.5,29.95,NW,317,1.7,9.8,79,0.00,,,0.00,WUHU216HW,2013-03-05 09:58:00,
2013-03-05 05:13:00,29.9,24.1,29.96,East,101,0.5,2.2,79,0.00,,,0.00,WUHU216HW,2013-03-05 10:13:00,
2013-03-05 05:28:00,29.9,24.1,29.97,ESE,108,0.4,1.1,79,0.00,,,0.00,WUHU216HW,2013-03-05 10:28:00,
2013-03-05 05:43:00,29.9,24.1,29.97,NNE,28,0.5,1.3,79,0.00,,,0.00,WUHU216HW,2013-03-05 10:43:00,
2013-03-05 05:58:00,29.9,24.1,29.97,SSW,193,0.8,2.7,79,0.00,,,0.00,WUHU216HW,2013-03-05 10:58:00,
2013-03-05 06:13:00,29.9,24.1,29.98,ESE,107,0.7,1.1,79,0.00,,,0.00,WUHU216HW,2013-03-05 11:13:00,
2013-03-05 06:28:00,30.2,25.1,29.98,NW,306,1.1,2.5,81,0.00,,,0.00,WUHU216HW,2013-03-05 11:28:00,
2013-03-05 06:43:00,31.3,25.9,29.99,WNW,302,1.6,6.3,80,0.00,,,0.00,WUHU216HW,2013-03-05 11:43:00,
2013-03-05 06:58:00,31.9,26.1,30.00,WNW,283,1.2,4.0,79,0.00,,,0.00,WUHU216HW,2013-03-05 11:58:00,
2013-03-05 07:13:00,31.7,25.9,30.01,SE,142,0.7,1.8,79,0.00,,,0.00,WUHU216HW,2013-03-05 12:13:00,
2013-03-05 07:28:00,31.5,25.5,30.01,ESE,119,0.4,0.7,78,0.00,,,0.00,WUHU216HW,2013-03-05 12:28:00,
2013-03-05 07:43:00,31.7,25.9,30.02,East,90,0.2,0.2,79,0.00,,,0.00,WUHU216HW,2013-03-05 12:43:00,
2013-03-05 07:58:00,32.0,26.3,30.02,NNW,331,0.7,3.4,79,0.00,,,0.00,WUHU216HW,2013-03-05 12:58:00,
2013-03-05 08:13:00,33.5,27.6,30.03,NW,316,1.1,2.9,79,0.00,,,0.00,WUHU216HW,2013-03-05 13:13:00,
2013-03-05 08:28:00,34.4,27.8,30.03,WNW,301,2.5,5.1,77,0.00,,,0.00,WUHU216HW,2013-03-05 13:28:00,
2013-03-05 08:43:00,35.8,29.0,30.03,West,259,1.4,4.7,76,0.00,,,0.00,WUHU216HW,2013-03-05 13:43:00,
2013-03-05 08:58:00,36.0,29.2,30.03,SSE,150,0.7,1.8,76,0.00,,,0.00,WUHU216HW,2013-03-05 13:58:00,
2013-03-05 09:13:00,36.7,30.2,30.03,SW,223,0.9,1.8,77,0.00,,,0.00,WUHU216HW,2013-03-05 14:13:00,
2013-03-05 09:28:00,37.8,30.0,30.03,WNW,287,1.9,5.1,73,0.00,,,0.00,WUHU216HW,2013-03-05 14:28:00,
2013-03-05 09:43:00,38.3,30.1,30.03,WNW,299,2.6,9.2,72,0.00,,,0.00,WUHU216HW,2013-03-05 14:43:00,
2013-03-05 09:58:00,39.2,31.0,30.03,West,264,1.0,2.5,72,0.00,,,0.00,WUHU216HW,2013-03-05 14:58:00,
2013-03-05 10:13:00,41.0,31.7,30.03,WSW,239,2.0,4.0,69,0.00,,,0.00,WUHU216HW,2013-03-05 15:13:00,
2013-03-05 10:28:00,41.4,31.7,30.04,WNW,296,1.4,3.1,68,0.00,,,0.00,WUHU216HW,2013-03-05 15:28:00,
2013-03-05 10:43:00,41.2,31.1,30.04,SE,126,1.7,5.6,67,0.00,,,0.00,WUHU216HW,2013-03-05 15:43:00,
2013-03-05 10:58:00,41.4,31.2,30.04,WNW,301,1.6,4.7,67,0.00,,,0.00,WUHU216HW,2013-03-05 15:58:00,
2013-03-05 11:13:00,42.3,32.1,30.05,ESE,115,1.3,4.0,67,0.00,,,0.00,WUHU216HW,2013-03-05 16:13:00,
2013-03-05 11:28:00,43.4,32.0,30.05,ESE,118,2.0,4.7,64,0.00,,,0.00,WUHU216HW,2013-03-05 16:28:00,
2013-03-05 11:43:00,44.3,32.0,30.05,NW,312,1.5,5.4,62,0.00,,,0.00,WUHU216HW,2013-03-05 16:43:00,
2013-03-05 11:58:00,44.6,31.2,30.06,West,268,1.8,3.6,59,0.00,,,0.00,WUHU216HW,2013-03-05 16:58:00,
2013-03-05 12:13:00,43.6,31.0,30.06,East,84,1.6,3.4,61,0.00,,,0.00,WUHU216HW,2013-03-05 17:13:00,
2013-03-05 12:28:00,43.7,30.8,30.06,NNW,337,1.8,6.0,60,0.00,,,0.00,WUHU216HW,2013-03-05 17:28:00,
2013-03-05 12:43:00,43.9,31.3,30.06,East,91,1.8,5.1,61,0.00,,,0.00,WUHU216HW,2013-03-05 17:43:00,
2013-03-05 12:58:00,43.6,31.4,30.07,NW,307,1.2,4.5,62,0.00,,,0.00,WUHU216HW,2013-03-05 17:58:00,
2013-03-05 13:13:00,43.6,30.6,30.07,SSE,149,1.7,3.4,60,0.00,,,0.00,WUHU216HW,2013-03-05 18:13:00,
2013-03-05 13:28:00,43.7,31.1,30.07,NNE,29,1.7,6.9,61,0.00,,,0.00,WUHU216HW,2013-03-05 18:28:00,
2013-03-05 13:43:00,44.3,31.3,30.07,East,92,1.5,6.0,60,0.00,,,0.00,WUHU216HW,2013-03-05 18:43:00,
2013-03-05 13:58:00,43.7,30.8,30.08,ENE,65,1.7,6.7,60,0.00,,,0.00,WUHU216HW,2013-03-05 18:58:00,
2013-03-05 14:13:00,43.7,31.1,30.08,ESE,107,1.4,4.5,61,0.00,,,0.00,WUHU216HW,2013-03-05 19:13:00,
2013-03-05 14:28:00,43.0,30.4,30.08,NW,311,1.9,4.3,61,0.00,,,0.00,WUHU216HW,2013-03-05 19:28:00,
2013-03-05 14:43:00,43.2,30.6,30.09,NW,313,1.9,4.9,61,0.00,,,0.00,WUHU216HW,2013-03-05 19:43:00,
2013-03-05 14:58:00,42.8,30.7,30.08,North,7,2.2,4.7,62,0.00,,,0.00,WUHU216HW,2013-03-05 19:58:00,
2013-03-05 15:13:00,42.7,30.5,30.09,NNE,29,1.8,4.7,62,0.00,,,0.00,WUHU216HW,2013-03-05 20:13:00,
2013-03-05 15:28:00,42.5,30.3,30.10,NW,316,1.5,4.3,62,0.00,,,0.00,WUHU216HW,2013-03-05 20:28:00,
2013-03-05 15:43:00,42.3,30.6,30.10,East,96,1.8,5.4,63,0.00,,,0.00,WUHU216HW,2013-03-05 20:43:00,
2013-03-05 15:58:00,42.1,30.4,30.11,ESE,109,1.5,4.5,63,0.00,,,0.00,WUHU216HW,2013-03-05 20:58:00,
2013-03-05 16:13:00,41.8,30.1,30.11,NE,52,1.6,3.8,63,0.00,,,0.00,WUHU216HW,2013-03-05 21:13:00,
2013-03-05 16:28:00,41.4,29.7,30.11,East,93,1.5,4.0,63,0.00,,,0.00,WUHU216HW,2013-03-05 21:28:00,
2013-03-05 16:43:00,41.0,29.8,30.12,WNW,301,1.5,6.3,64,0.00,,,0.00,WUHU216HW,2013-03-05 21:43:00,
2013-03-05 16:58:00,40.7,29.8,30.12,WNW,302,1.1,3.1,65,0.00,,,0.00,WUHU216HW,2013-03-05 21:58:00,
2013-03-05 17:13:00,39.6,29.1,30.13,NW,305,1.1,3.4,66,0.00,,,0.00,WUHU216HW,2013-03-05 22:13:00,
2013-03-05 17:28:00,39.1,29.0,30.13,NW,312,0.7,1.6,67,0.00,,,0.00,WUHU216HW,2013-03-05 22:28:00,
2013-03-05 17:43:00,38.5,29.3,30.13,NW,314,0.7,1.6,69,0.00,,,0.00,WUHU216HW,2013-03-05 22:43:00,
2013-03-05 17:58:00,37.8,29.0,30.14,NW,316,0.8,1.8,70,0.00,,,0.00,WUHU216HW,2013-03-05 22:58:00,
2013-03-05 18:13:00,37.3,28.8,30.14,NW,306,0.4,0.7,71,0.00,,,0.00,WUHU216HW,2013-03-05 23:13:00,
2013-03-05 18:28:00,36.9,29.1,30.14,NNW,338,0.2,0.2,73,0.00,,,0.00,WUHU216HW,2013-03-05 23:28:00,
2013-03-05 18:43:00,36.5,29.0,30.15,WNW,293,0.4,0.4,74,0.00,,,0.00,WUHU216HW,2013-03-05 23:43:00,
2013-03-05 18:58:00,36.4,28.8,30.15,NNW,330,0.3,0.4,74,0.00,,,0.00,WUHU216HW,2013-03-05 23:58:00,
2013-03-05 19:13:00,35.8,29.0,30.16,NW,311,0.8,2.2,76,0.00,,,0.00,WUHU216HW,2013-03-06 00:13:00,
2013-03-05 19:28:00,36.5,30.6,30.16,North,353,1.4,4.3,79,0.00,,,0.00,WUHU216HW,2013-03-06 00:28:00,
2013-03-05 19:43:00,36.7,30.5,30.16,NW,309,0.9,2.0,78,0.00,,,0.00,WUHU216HW,2013-03-06 00:43:00,
2013-03-05 19:59:00,36.4,30.4,30.16,WNW,303,0.9,1.8,79,0.00,,,0.00,WUHU216HW,2013-03-06 00:59:00,
2013-03-05 20:14:00,36.2,30.2,30.16,NW,307,0.9,2.2,79,0.00,,,0.00,WUHU216HW,2013-03-06 01:14:00,
2013-03-05 20:29:00,36.2,30.6,30.16,NW,326,1.2,5.8,80,0.00,,,0.00,WUHU216HW,2013-03-06 01:29:00,
2013-03-05 20:44:00,36.4,30.8,30.16,WNW,292,0.8,2.0,80,0.00,,,0.00,WUHU216HW,2013-03-06 01:44:00,
2013-03-05 20:59:00,36.5,31.0,30.16,WNW,298,0.9,3.4,80,0.00,,,0.00,WUHU216HW,2013-03-06 01:59:00,
2013-03-05 21:14:00,37.1,31.5,30.16,NNW,328,1.2,4.0,80,0.00,,,0.00,WUHU216HW,2013-03-06 02:14:00,
2013-03-05 21:29:00,37.3,31.7,30.16,NNE,19,1.1,2.2,80,0.00,,,0.00,WUHU216HW,2013-03-06 02:29:00,
2013-03-05 21:44:00,37.4,31.9,30.16,ENE,57,1.0,4.0,80,0.00,,,0.00,WUHU216HW,2013-03-06 02:44:00,
2013-03-05 21:59:00,37.4,31.9,30.16,NNE,28,1.6,4.7,80,0.00,,,0.00,WUHU216HW,2013-03-06 02:59:00,
2013-03-05 22:14:00,37.4,31.5,30.17,ENE,77,1.3,4.0,79,0.00,,,0.00,WUHU216HW,2013-03-06 03:14:00,
2013-03-05 22:29:00,37.3,31.7,30.17,NW,305,0.8,2.5,80,0.00,,,0.00,WUHU216HW,2013-03-06 03:29:00,
2013-03-05 22:44:00,37.1,31.8,30.17,East,91,1.0,3.4,81,0.00,,,0.00,WUHU216HW,2013-03-06 03:44:00,
2013-03-05 22:59:00,36.4,32.0,30.19,NNE,21,1.2,3.6,84,0.00,,,0.00,WUHU216HW,2013-03-06 03:59:00,
2013-03-05 23:14:00,35.8,32.0,30.19,NNW,341,1.5,3.6,86,0.00,,,0.00,WUHU216HW,2013-03-06 04:14:00,
2013-03-05 23:29:00,35.3,31.4,30.20,NE,43,1.3,3.4,86,0.00,,,0.00,WUHU216HW,2013-03-06 04:29:00,
2013-03-05 23:44:00,35.1,31.2,30.20,NNW,333,1.0,2.0,86,0.00,,,0.00,WUHU216HW,2013-03-06 04:44:00,
2013-03-05 23:59:00,34.9,31.3,30.21,NW,317,1.1,2.9,87,0.00,,,0.00,WUHU216HW,2013-03-06 04:59:00,